Time;durP1;ratioP1;P1;durP2;ratioP2;P2;SDS_P1;SDS_P2;PMS_P1;PMS_P2;Temp;Humidity;BMP_temperature;BMP_pressure;BME280_temperature;BME280_humidity;BME280_pressure;Samples;Min_cycle;Max_cycle;Signal;HPM_P1;HPM_P2
2023/03/04 00:00:05;;;;;;;27.67;3.97;;;3.50;93.30;;;;;;5039444;28;20150;-81
2023/03/04 00:02:32;;;;;;;36.08;5.43;;;3.50;93.40;;;;;;5046770;28;20052;-82
2023/03/04 00:04:59;;;;;;;27.58;3.05;;;3.50;93.10;;;;;;5049025;28;20105;-81
2023/03/04 00:07:26;;;;;;;25.00;4.18;;;3.50;93.00;;;;;;5041190;28;20731;-81
2023/03/04 00:09:52;;;;;;;35.10;3.60;;;3.50;92.70;;;;;;5034412;28;20064;-81
2023/03/04 00:15:28;;;;;;;31.45;4.63;;;3.50;92.70;;;;;;5016512;28;20067;-73
2023/03/04 00:17:55;;;;;;;31.02;4.53;;;3.50;92.60;;;;;;5019830;28;20061;-73
2023/03/04 00:20:22;;;;;;;26.13;3.80;;;3.50;92.40;;;;;;5002499;28;20046;-73
2023/03/04 00:22:48;;;;;;;23.55;3.80;;;3.50;92.40;;;;;;5020148;28;20061;-73
2023/03/04 00:25:15;;;;;;;29.27;3.53;;;3.50;92.20;;;;;;5002468;28;20041;-73
2023/03/04 00:27:42;;;;;;;25.98;3.60;;;3.50;92.30;;;;;;5002889;28;20709;-72
2023/03/04 00:30:10;;;;;;;31.75;2.80;;;3.50;92.30;;;;;;5021879;28;20053;-73
2023/03/04 00:32:36;;;;;;;14.10;3.22;;;3.50;92.20;;;;;;5014255;28;20046;-73
2023/03/04 00:35:05;;;;;;;22.63;2.80;;;3.50;92.20;;;;;;5019005;28;20168;-72
2023/03/04 00:37:32;;;;;;;41.65;5.05;;;3.50;92.30;;;;;;5026063;28;20053;-72
2023/03/04 00:39:59;;;;;;;21.27;3.47;;;3.50;92.30;;;;;;5026206;28;20127;-73
2023/03/04 00:42:26;;;;;;;19.27;3.08;;;3.50;92.30;;;;;;5024587;28;20041;-73
2023/03/04 00:44:53;;;;;;;17.08;3.00;;;3.50;92.30;;;;;;5022969;28;20077;-73
2023/03/04 00:47:19;;;;;;;26.13;4.05;;;3.50;92.40;;;;;;5022258;28;20132;-72
2023/03/04 00:49:46;;;;;;;29.38;3.40;;;3.50;92.60;;;;;;5018694;28;20060;-73
2023/03/04 00:52:13;;;;;;;22.00;4.13;;;3.50;92.60;;;;;;5005997;28;20049;-73
2023/03/04 00:54:40;;;;;;;21.70;2.97;;;3.50;92.70;;;;;;5024858;28;20058;-73
2023/03/04 00:57:07;;;;;;;22.48;3.22;;;3.50;92.60;;;;;;5025232;28;20072;-73
2023/03/04 00:59:34;;;;;;;26.48;3.55;;;3.50;92.80;;;;;;5026506;28;20060;-73
2023/03/04 01:02:01;;;;;;;16.40;3.28;;;3.50;92.80;;;;;;5019761;28;20057;-73
2023/03/04 01:04:28;;;;;;;24.70;3.22;;;3.50;92.70;;;;;;5021182;28;20054;-73
2023/03/04 01:06:55;;;;;;;20.90;3.55;;;3.50;92.80;;;;;;5024137;28;20120;-72
2023/03/04 01:09:22;;;;;;;20.13;3.30;;;3.50;92.60;;;;;;5023089;28;20055;-73
2023/03/04 01:11:48;;;;;;;17.48;3.72;;;3.50;92.60;;;;;;5023916;28;20056;-73
2023/03/04 01:14:15;;;;;;;31.00;3.97;;;3.50;92.60;;;;;;5031928;28;20072;-73
2023/03/04 01:16:42;;;;;;;23.30;3.53;;;3.50;92.70;;;;;;5040531;28;20151;-73
2023/03/04 01:19:09;;;;;;;19.08;3.20;;;3.50;92.70;;;;;;5042997;28;20055;-73
2023/03/04 01:21:36;;;;;;;18.27;3.17;;;3.50;92.70;;;;;;5027449;28;20045;-73
2023/03/04 01:24:03;;;;;;;30.95;3.25;;;3.60;92.30;;;;;;5042569;28;20072;-73
2023/03/04 01:26:30;;;;;;;27.23;3.75;;;3.60;92.40;;;;;;5037038;28;20419;-73
2023/03/04 01:28:57;;;;;;;25.23;4.07;;;3.60;92.50;;;;;;5042631;28;20497;-74
2023/03/04 01:34:10;;;;;;;20.48;3.50;;;3.60;92.50;;;;;;4998865;28;20422;-82
2023/03/04 01:36:37;;;;;;;23.38;3.25;;;3.60;92.60;;;;;;5229257;22;20436;-81
2023/03/04 01:39:31;;;;;;;24.25;3.22;;;3.70;92.30;;;;;;5030290;28;20188;-82
2023/03/04 01:41:58;;;;;;;16.42;3.42;;;3.70;92.40;;;;;;5043813;22;20492;-73
2023/03/04 01:44:25;;;;;;;21.90;3.50;;;3.70;92.20;;;;;;5061892;28;20040;-74
2023/03/04 01:46:54;;;;;;;26.08;3.92;;;3.70;92.00;;;;;;5060709;28;20056;-73
2023/03/04 01:49:21;;;;;;;13.55;3.47;;;3.80;91.90;;;;;;5038500;28;20044;-74
2023/03/04 01:51:53;;;;;;;17.42;3.15;;;3.80;91.90;;;;;;5062980;28;20106;-73
2023/03/04 01:54:21;;;;;;;19.45;3.28;;;3.70;92.20;;;;;;5063457;28;20041;-73
2023/03/04 01:56:51;;;;;;;16.95;3.50;;;3.70;92.10;;;;;;5035316;28;20055;-73
2023/03/04 01:59:18;;;;;;;19.30;3.20;;;3.70;92.30;;;;;;5065620;28;20563;-73
2023/03/04 02:04:58;;;;;;;14.07;2.95;;;3.70;92.30;;;;;;5063887;28;20072;-72
2023/03/04 02:07:24;;;;;;;16.70;2.40;;;3.80;92.10;;;;;;5057664;28;20053;-72
2023/03/04 02:09:51;;;;;;;17.00;2.83;;;3.80;92.10;;;;;;5061112;28;20052;-73
2023/03/04 02:12:18;;;;;;;17.85;2.60;;;3.80;92.20;;;;;;5053017;28;20059;-72
2023/03/04 02:14:45;;;;;;;22.27;2.40;;;3.80;92.10;;;;;;5057524;28;20053;-72
2023/03/04 02:17:12;;;;;;;16.75;2.50;;;3.90;91.70;;;;;;5039171;28;20102;-73
2023/03/04 02:19:52;;;;;;;13.57;3.00;;;3.80;91.80;;;;;;5059091;28;20564;-72
2023/03/04 02:22:18;;;;;;;19.05;2.67;;;3.90;91.80;;;;;;5062246;28;20044;-73
2023/03/04 02:24:52;;;;;;;16.20;2.47;;;3.90;91.60;;;;;;5065741;28;20052;-73
2023/03/04 02:27:19;;;;;;;11.38;2.13;;;3.90;91.50;;;;;;5065254;28;20040;-73
2023/03/04 02:29:48;;;;;;;14.32;2.92;;;4.00;91.40;;;;;;5057951;28;20057;-72
2023/03/04 02:32:15;;;;;;;21.33;2.80;;;4.00;91.10;;;;;;5064732;28;20048;-72
2023/03/04 02:34:48;;;;;;;15.93;2.35;;;4.10;90.90;;;;;;5061845;28;20056;-73
2023/03/04 02:37:17;;;;;;;17.00;2.92;;;4.10;90.70;;;;;;5058509;28;21021;-73
2023/03/04 02:39:48;;;;;;;14.18;2.08;;;4.10;90.60;;;;;;5035702;28;20071;-73
2023/03/04 02:42:17;;;;;;;13.15;2.03;;;4.20;90.40;;;;;;5060784;28;20091;-73
2023/03/04 02:47:16;;;;;;;12.38;2.70;;;4.20;90.60;;;;;;5001621;28;20061;-73
2023/03/04 02:49:43;;;;;;;13.40;1.83;;;4.20;90.60;;;;;;5001323;28;20046;-73
2023/03/04 02:52:21;;;;;;;19.25;1.80;;;4.20;90.60;;;;;;5001284;28;20045;-73
2023/03/04 02:54:48;;;;;;;13.80;1.70;;;4.20;90.60;;;;;;4993377;28;20088;-73
2023/03/04 02:57:15;;;;;;;18.27;2.22;;;4.20;90.60;;;;;;5017685;23;20053;-81
2023/03/04 02:59:42;;;;;;;10.23;1.30;;;4.20;90.80;;;;;;5037463;28;20053;-73
2023/03/04 03:02:10;;;;;;;19.60;1.48;;;4.20;90.80;;;;;;5039742;28;20049;-73
2023/03/04 03:04:38;;;;;;;14.68;2.08;;;4.20;90.80;;;;;;5015706;28;20064;-73
2023/03/04 03:07:06;;;;;;;11.25;1.95;;;4.20;91.00;;;;;;5024631;28;20047;-73
2023/03/04 03:09:32;;;;;;;10.60;1.60;;;4.20;91.20;;;;;;5038050;28;20056;-73
2023/03/04 03:11:59;;;;;;;16.50;2.15;;;4.20;91.50;;;;;;5022158;28;20049;-73
2023/03/04 03:14:26;;;;;;;21.58;2.47;;;4.20;91.60;;;;;;5039472;28;20135;-73
2023/03/04 03:16:53;;;;;;;25.42;2.38;;;4.20;91.40;;;;;;5022986;28;20052;-73
2023/03/04 03:19:19;;;;;;;7.47;1.85;;;4.20;91.60;;;;;;5044274;28;20389;-73
2023/03/04 03:21:46;;;;;;;16.48;1.40;;;4.20;91.80;;;;;;5053655;28;20060;-73
2023/03/04 03:24:14;;;;;;;19.23;1.65;;;4.20;92.00;;;;;;5028488;23;20043;-81
2023/03/04 03:26:40;;;;;;;21.15;1.98;;;4.20;92.20;;;;;;5045365;28;20155;-82
2023/03/04 03:34:40;;;;;;;2.78;1.00;;;4.10;92.50;;;;;;5016922;28;21187;-73
2023/03/04 03:40:14;;;;;;;21.38;1.95;;;4.10;92.50;;;;;;5034659;28;20079;-73
2023/03/04 03:42:41;;;;;;;13.38;1.70;;;4.10;92.70;;;;;;5030108;28;20049;-73
2023/03/04 03:48:23;;;;;;;7.25;1.83;;;4.10;92.70;;;;;;5020265;28;20053;-73
2023/03/04 03:53:24;;;;;;;19.73;1.88;;;4.10;92.70;;;;;;5018693;28;20046;-72
2023/03/04 03:55:51;;;;;;;18.50;2.40;;;4.10;92.70;;;;;;5002585;28;20382;-73
2023/03/04 03:58:18;;;;;;;12.75;1.95;;;4.10;92.70;;;;;;5005008;28;20073;-73
2023/03/04 04:00:45;;;;;;;16.48;1.92;;;4.10;92.50;;;;;;5007391;28;20540;-82
2023/03/04 04:03:14;;;;;;;6.53;1.65;;;4.10;92.50;;;;;;5028935;22;20049;-83
2023/03/04 04:05:41;;;;;;;25.17;2.20;;;4.10;92.30;;;;;;5093516;28;20044;-83
2023/03/04 04:08:18;;;;;;;25.55;2.28;;;4.20;92.10;;;;;;5094112;28;20070;-82
2023/03/04 04:10:45;;;;;;;17.60;1.75;;;4.20;92.10;;;;;;5091992;28;20048;-82
2023/03/04 04:13:12;;;;;;;15.80;1.55;;;4.20;92.00;;;;;;5071926;28;21346;-82
2023/03/04 04:15:39;;;;;;;15.00;1.10;;;4.20;91.90;;;;;;5079388;22;20056;-73
2023/03/04 04:18:06;;;;;;;17.52;1.83;;;4.20;92.00;;;;;;4998154;28;20772;-73
2023/03/04 04:20:33;;;;;;;11.85;1.75;;;4.20;91.80;;;;;;4982516;28;20049;-73
2023/03/04 04:25:55;;;;;;;14.43;1.80;;;4.20;91.60;;;;;;5004721;28;20141;-82
2023/03/04 04:28:22;;;;;;;10.38;1.60;;;4.20;91.10;;;;;;5005112;28;20054;-82
2023/03/04 04:30:49;;;;;;;6.93;1.75;;;4.20;90.80;;;;;;5006890;28;20072;-81
2023/03/04 04:33:16;;;;;;;11.85;1.98;;;4.20;90.60;;;;;;5009676;28;20084;-81
2023/03/04 04:35:43;;;;;;;9.93;1.80;;;4.20;90.20;;;;;;5018395;28;20772;-81
2023/03/04 04:38:10;;;;;;;13.15;2.20;;;4.20;89.60;;;;;;5010593;28;20129;-81
2023/03/04 04:40:37;;;;;;;12.90;1.42;;;4.30;88.60;;;;;;5004546;28;21763;-81
2023/03/04 04:43:04;;;;;;;9.65;1.52;;;4.30;88.20;;;;;;5003794;28;20108;-81
2023/03/04 04:45:30;;;;;;;16.80;1.58;;;4.30;88.20;;;;;;5006786;28;20132;-82
2023/03/04 04:47:57;;;;;;;13.45;1.45;;;4.30;88.40;;;;;;5004142;28;20065;-82
2023/03/04 04:50:24;;;;;;;18.83;1.67;;;4.30;88.50;;;;;;5006613;28;20050;-82
2023/03/04 04:52:51;;;;;;;16.33;1.50;;;4.40;88.10;;;;;;5003356;28;20054;-81
2023/03/04 04:55:18;;;;;;;9.85;1.60;;;4.40;87.60;;;;;;5009784;28;20049;-82
2023/03/04 04:57:46;;;;;;;16.55;1.88;;;4.40;87.50;;;;;;5014688;28;20125;-80
2023/03/04 05:00:13;;;;;;;17.77;1.50;;;4.40;87.40;;;;;;5027444;23;20064;-73
2023/03/04 05:02:40;;;;;;;18.65;1.85;;;4.40;86.90;;;;;;5024788;28;20049;-73
2023/03/04 05:05:07;;;;;;;15.35;1.60;;;4.40;86.50;;;;;;5046233;28;20666;-73
2023/03/04 05:07:34;;;;;;;17.20;2.15;;;4.40;86.30;;;;;;5027726;28;20076;-73
2023/03/04 05:10:02;;;;;;;17.48;1.85;;;4.40;86.10;;;;;;5039802;28;20188;-73
2023/03/04 05:12:29;;;;;;;14.93;1.67;;;4.40;86.10;;;;;;5034168;28;20289;-73
2023/03/04 05:14:55;;;;;;;13.65;1.80;;;4.40;86.50;;;;;;5028961;28;20049;-82
2023/03/04 05:17:22;;;;;;;14.30;1.58;;;4.30;86.80;;;;;;5043294;28;20044;-82
2023/03/04 05:19:49;;;;;;;12.40;1.63;;;4.40;87.10;;;;;;5039676;28;20052;-73
2023/03/04 05:22:16;;;;;;;14.23;1.52;;;4.30;87.50;;;;;;5039789;28;20434;-73
2023/03/04 05:24:43;;;;;;;25.17;1.83;;;4.30;87.20;;;;;;5031068;28;20094;-73
2023/03/04 05:27:09;;;;;;;12.70;1.83;;;4.40;86.40;;;;;;5041853;28;20048;-73
2023/03/04 05:29:36;;;;;;;13.57;1.70;;;4.40;85.90;;;;;;5053136;23;20044;-73
2023/03/04 05:32:03;;;;;;;13.75;1.52;;;4.40;85.70;;;;;;5018770;28;20048;-73
2023/03/04 05:34:30;;;;;;;14.63;1.77;;;4.30;85.50;;;;;;5041979;28;20045;-73
2023/03/04 05:36:57;;;;;;;15.90;1.90;;;4.30;84.70;;;;;;5025263;28;21053;-74
2023/03/04 05:39:24;;;;;;;10.52;1.90;;;4.30;84.40;;;;;;5040953;28;20052;-73
2023/03/04 05:41:50;;;;;;;59.90;31.10;;;4.30;83.00;;;;;;5021833;28;20045;-74
2023/03/04 05:44:17;;;;;;;24.88;7.28;;;4.30;83.00;;;;;;5036676;28;20052;-74
2023/03/04 05:46:44;;;;;;;16.20;5.75;;;4.30;81.00;;;;;;5041518;28;20051;-73
2023/03/04 05:49:11;;;;;;;27.85;2.95;;;4.30;81.00;;;;;;5039587;28;20049;-73
2023/03/04 05:51:37;;;;;;;17.83;4.63;;;4.30;80.50;;;;;;5038675;28;20045;-74
2023/03/04 05:54:04;;;;;;;27.60;3.47;;;4.30;80.80;;;;;;5041139;28;20056;-74
2023/03/04 05:56:32;;;;;;;20.45;2.10;;;4.20;81.30;;;;;;5042168;28;20056;-74
2023/03/04 05:58:59;;;;;;;23.45;2.60;;;4.20;81.50;;;;;;5040759;28;20057;-74
2023/03/04 06:01:26;;;;;;;22.83;2.92;;;4.20;81.90;;;;;;5032828;23;20452;-81
2023/03/04 06:03:56;;;;;;;25.67;3.45;;;4.20;82.40;;;;;;5031005;28;20419;-82
2023/03/04 06:06:23;;;;;;;29.65;6.28;;;4.10;82.80;;;;;;5042225;28;20136;-73
2023/03/04 06:08:50;;;;;;;17.77;3.35;;;4.10;82.90;;;;;;5034265;28;20053;-73
2023/03/04 06:11:17;;;;;;;39.40;4.90;;;4.10;83.30;;;;;;5026787;28;20040;-73
2023/03/04 06:13:44;;;;;;;33.10;4.93;;;4.10;83.60;;;;;;5044481;28;20049;-73
2023/03/04 06:16:11;;;;;;;32.83;2.75;;;4.10;83.70;;;;;;5044622;23;20049;-82
2023/03/04 06:18:38;;;;;;;26.60;3.15;;;4.10;83.90;;;;;;5041396;28;20049;-81
2023/03/04 06:21:05;;;;;;;18.42;2.20;;;4.10;84.80;;;;;;5044791;28;20515;-82
2023/03/04 06:23:31;;;;;;;31.63;3.58;;;4.00;85.30;;;;;;5023418;28;20045;-73
2023/03/04 06:26:00;;;;;;;19.77;3.42;;;4.00;85.60;;;;;;5032724;28;20060;-73
2023/03/04 06:28:27;;;;;;;22.38;3.05;;;4.00;85.50;;;;;;5017153;28;20381;-73
2023/03/04 06:30:56;;;;;;;29.10;4.20;;;4.00;86.00;;;;;;5018757;28;20103;-73
2023/03/04 06:33:24;;;;;;;36.58;3.47;;;4.00;86.00;;;;;;5032497;28;20053;-73
2023/03/04 06:35:55;;;;;;;23.65;2.88;;;4.00;86.10;;;;;;5035258;28;20053;-73
2023/03/04 06:38:23;;;;;;;20.92;3.15;;;4.00;86.20;;;;;;5045619;28;20063;-83
2023/03/04 06:40:51;;;;;;;41.72;4.38;;;4.00;85.90;;;;;;5042485;28;20049;-83
2023/03/04 06:43:21;;;;;;;23.98;2.95;;;4.00;86.00;;;;;;5018244;28;20076;-82
2023/03/04 06:45:48;;;;;;;38.55;3.92;;;4.00;85.50;;;;;;5040531;28;20867;-83
2023/03/04 06:48:15;;;;;;;34.95;3.35;;;4.00;85.40;;;;;;5036938;28;20045;-83
2023/03/04 06:50:42;;;;;;;29.77;3.80;;;4.00;84.90;;;;;;5042172;28;20056;-83
2023/03/04 06:53:09;;;;;;;33.95;4.88;;;4.00;85.40;;;;;;5044377;28;20049;-83
2023/03/04 06:55:35;;;;;;;29.40;3.80;;;4.00;85.10;;;;;;5033670;22;20073;-83
2023/03/04 06:58:02;;;;;;;21.23;2.85;;;4.00;84.90;;;;;;5041164;28;20045;-83
2023/03/04 07:00:29;;;;;;;31.63;2.97;;;4.00;84.20;;;;;;5043255;28;20044;-83
2023/03/04 07:02:58;;;;;;;13.23;2.45;;;4.00;84.20;;;;;;5057229;28;20156;-83
2023/03/04 07:05:25;;;;;;;36.20;3.83;;;3.90;83.90;;;;;;5056865;28;20387;-83
2023/03/04 07:07:52;;;;;;;30.55;3.13;;;3.90;84.30;;;;;;5061160;28;20054;-82
2023/03/04 07:10:19;;;;;;;20.50;3.35;;;3.90;84.30;;;;;;5051519;22;20053;-83
2023/03/04 07:12:47;;;;;;;37.55;3.70;;;3.90;84.30;;;;;;5042620;28;20048;-82
2023/03/04 07:15:13;;;;;;;25.15;2.85;;;4.00;84.30;;;;;;5057794;28;20049;-82
2023/03/04 07:17:40;;;;;;;35.35;3.90;;;3.90;84.50;;;;;;5062090;28;20432;-83
2023/03/04 07:20:08;;;;;;;38.00;3.63;;;4.00;84.40;;;;;;5056412;28;20484;-83
2023/03/04 07:26:12;;;;;;;31.20;3.65;;;4.00;84.80;;;;;;5053155;28;20575;-74
2023/03/04 07:28:39;;;;;;;28.75;2.42;;;4.00;84.50;;;;;;5054265;28;20055;-74
2023/03/04 07:31:10;;;;;;;29.52;3.00;;;4.00;84.40;;;;;;5057465;28;20154;-74
2023/03/04 07:33:37;;;;;;;23.00;3.15;;;4.00;84.30;;;;;;5056405;28;20063;-74
2023/03/04 07:36:04;;;;;;;21.92;2.83;;;4.00;84.30;;;;;;5054665;28;20048;-73
2023/03/04 07:38:31;;;;;;;29.73;2.75;;;4.10;84.10;;;;;;5064371;23;20126;-82
2023/03/04 07:41:00;;;;;;;27.83;3.53;;;4.10;83.90;;;;;;5064556;28;20053;-82
2023/03/04 07:43:26;;;;;;;21.25;2.30;;;4.10;84.40;;;;;;5047696;28;20040;-81
2023/03/04 07:45:59;;;;;;;24.90;3.50;;;4.10;84.00;;;;;;5051435;28;20499;-81
2023/03/04 07:48:26;;;;;;;24.50;2.60;;;4.10;84.10;;;;;;5044140;28;20052;-80
2023/03/04 07:51:10;;;;;;;18.38;2.72;;;4.10;83.80;;;;;;5065672;28;20153;-81
2023/03/04 07:56:58;;;;;;;28.50;3.13;;;4.10;84.40;;;;;;5055621;28;20064;-77
2023/03/04 08:02:24;;;;;;;20.75;2.80;;;4.20;83.60;;;;;;5071087;28;20055;-81
2023/03/04 08:04:51;;;;;;;22.10;2.22;;;4.20;84.00;;;;;;5083781;28;20044;-83
2023/03/04 08:07:18;;;;;;;29.00;4.03;;;4.20;84.00;;;;;;5088280;28;20052;-81
2023/03/04 08:09:44;;;;;;;26.88;3.25;;;4.30;83.50;;;;;;5063269;28;20055;-82
2023/03/04 08:12:11;;;;;;;42.47;3.80;;;4.30;82.70;;;;;;5084869;28;20055;-82
2023/03/04 08:14:38;;;;;;;21.48;2.60;;;4.30;82.80;;;;;;5092569;28;20052;-84
2023/03/04 08:17:05;;;;;;;16.77;2.80;;;4.30;82.40;;;;;;5085061;28;20444;-84
2023/03/04 08:19:32;;;;;;;30.58;3.45;;;4.30;82.60;;;;;;5075320;22;20036;-76
2023/03/04 08:25:25;;;;;;;29.83;3.10;;;4.30;83.10;;;;;;4996522;28;20052;-84
2023/03/04 08:27:52;;;;;;;15.05;2.75;;;4.30;82.80;;;;;;4994655;28;20047;-83
2023/03/04 08:30:19;;;;;;;24.35;3.25;;;4.40;83.50;;;;;;4991000;28;20046;-83
2023/03/04 08:32:46;;;;;;;18.40;2.88;;;4.40;82.60;;;;;;4994689;28;20721;-81
2023/03/04 08:35:12;;;;;;;31.60;3.38;;;4.40;83.10;;;;;;4979937;28;20054;-85
2023/03/04 08:37:39;;;;;;;29.95;4.07;;;4.40;82.60;;;;;;4971372;28;20737;-83
2023/03/04 08:40:07;;;;;;;37.85;4.30;;;4.50;82.90;;;;;;4994746;28;20065;-86
2023/03/04 08:42:33;;;;;;;22.20;2.90;;;4.50;82.30;;;;;;4979311;28;20057;-85
2023/03/04 08:45:00;;;;;;;37.42;6.60;;;4.40;81.30;;;;;;4992230;28;20057;-84
2023/03/04 08:47:27;;;;;;;23.00;2.83;;;4.40;81.80;;;;;;4980266;28;20449;-83
2023/03/04 08:49:54;;;;;;;40.95;4.80;;;4.50;82.30;;;;;;4989346;23;20055;-83
2023/03/04 08:52:21;;;;;;;26.58;2.90;;;4.50;82.30;;;;;;5026569;28;20125;-85
2023/03/04 08:54:47;;;;;;;28.65;4.25;;;4.50;81.90;;;;;;5015779;28;20059;-85
2023/03/04 08:57:14;;;;;;;31.60;3.70;;;4.40;82.60;;;;;;5011668;28;20148;-85
2023/03/04 08:59:41;;;;;;;26.08;3.75;;;4.40;82.20;;;;;;5018455;28;20060;-84
2023/03/04 09:02:09;;;;;;;31.52;4.20;;;4.40;82.30;;;;;;5028185;28;20502;-80
2023/03/04 09:04:36;;;;;;;38.10;3.30;;;4.40;82.50;;;;;;5011631;28;20042;-84
2023/03/04 09:07:03;;;;;;;48.88;4.00;;;4.40;82.20;;;;;;5025343;28;20474;-78
2023/03/04 09:09:30;;;;;;;30.00;4.00;;;4.40;82.10;;;;;;5019349;28;20056;-80
2023/03/04 09:11:57;;;;;;;36.17;4.00;;;4.40;82.30;;;;;;5020971;28;20049;-82
2023/03/04 09:14:23;;;;;;;52.45;4.63;;;4.40;81.70;;;;;;5025366;28;20049;-82
2023/03/04 09:16:50;;;;;;;38.17;4.28;;;4.40;81.80;;;;;;5031300;28;20528;-82
2023/03/04 09:19:17;;;;;;;31.85;4.82;;;4.40;82.00;;;;;;5025710;28;20050;-83
2023/03/04 09:24:25;;;;;;;40.17;3.45;;;4.50;81.90;;;;;;5022624;28;20049;-82
2023/03/04 09:26:52;;;;;;;34.90;3.75;;;4.40;81.70;;;;;;5018228;28;20053;-81
2023/03/04 09:29:19;;;;;;;35.17;5.15;;;4.40;81.50;;;;;;5025866;28;20049;-81
2023/03/04 09:31:46;;;;;;;40.08;4.35;;;4.40;82.10;;;;;;5024231;28;20037;-79
2023/03/04 09:34:13;;;;;;;37.85;4.30;;;4.40;82.20;;;;;;5027368;28;20307;-81
2023/03/04 09:36:40;;;;;;;22.02;3.47;;;4.40;82.10;;;;;;5029044;28;20045;-85
2023/03/04 09:39:07;;;;;;;24.48;3.58;;;4.40;81.60;;;;;;5025794;28;20141;-82
2023/03/04 09:41:51;;;;;;;28.98;3.13;;;4.40;81.50;;;;;;5001960;28;20057;-77
2023/03/04 09:51:09;;;;;;;36.72;5.43;;;4.40;82.40;;;;;;5018097;23;20049;-77
2023/03/04 09:53:55;;;;;;;44.78;7.75;;;4.40;82.60;;;;;;5027060;28;20049;-78
2023/03/04 09:56:22;;;;;;;31.95;4.53;;;4.50;82.40;;;;;;5036725;28;20053;-78
2023/03/04 09:59:02;;;;;;;23.55;4.05;;;4.50;82.10;;;;;;5027626;28;20059;-78
2023/03/04 10:01:47;;;;;;;23.65;4.90;;;4.50;82.20;;;;;;5027340;28;20552;-78
2023/03/04 10:04:40;;;;;;;35.42;4.57;;;4.50;82.50;;;;;;5045873;28;20057;-77
2023/03/04 10:07:17;;;;;;;25.95;4.53;;;4.50;82.60;;;;;;5023968;28;20049;-78
2023/03/04 10:09:54;;;;;;;32.65;6.78;;;4.60;83.00;;;;;;5025732;28;20049;-78
2023/03/04 10:12:24;;;;;;;42.72;5.70;;;4.70;82.10;;;;;;5027692;28;20087;-78
2023/03/04 10:14:58;;;;;;;21.85;4.40;;;4.70;81.90;;;;;;5029441;28;20539;-78
2023/03/04 10:17:41;;;;;;;33.70;4.55;;;4.70;81.70;;;;;;5025864;28;20069;-78
2023/03/04 10:20:20;;;;;;;31.02;4.20;;;4.70;81.30;;;;;;5026473;28;20068;-78
2023/03/04 10:22:58;;;;;;;35.58;6.05;;;4.80;80.90;;;;;;5027183;28;20057;-78
2023/03/04 10:25:29;;;;;;;25.45;3.22;;;4.80;80.60;;;;;;5041638;28;20053;-77
2023/03/04 10:28:09;;;;;;;25.45;4.35;;;4.80;80.30;;;;;;5028523;28;20064;-78
2023/03/04 10:30:48;;;;;;;32.95;3.72;;;4.80;80.80;;;;;;5023945;28;20050;-78
2023/03/04 10:33:29;;;;;;;35.08;3.90;;;4.90;80.30;;;;;;5029223;28;20053;-78
2023/03/04 10:36:27;;;;;;;27.33;3.85;;;4.80;80.40;;;;;;5025566;28;20061;-78
2023/03/04 10:39:00;;;;;;;29.27;5.45;;;4.90;80.30;;;;;;5001740;28;20057;-78
2023/03/04 10:41:29;;;;;;;41.20;7.32;;;4.80;79.40;;;;;;5040288;28;20053;-77
2023/03/04 10:44:08;;;;;;;36.60;4.65;;;4.80;79.70;;;;;;5041261;28;20061;-78
2023/03/04 10:46:40;;;;;;;28.02;4.93;;;4.80;79.60;;;;;;5025091;28;20049;-78
2023/03/04 10:49:11;;;;;;;26.95;3.70;;;4.80;78.90;;;;;;5032539;28;20050;-78
2023/03/04 10:51:54;;;;;;;26.13;4.50;;;4.80;79.60;;;;;;5022565;28;20757;-78
2023/03/04 10:54:41;;;;;;;36.22;4.50;;;4.80;80.20;;;;;;5027909;28;20076;-78
2023/03/04 10:57:18;;;;;;;30.58;4.25;;;4.90;79.30;;;;;;5039791;28;20407;-77
2023/03/04 10:59:58;;;;;;;32.75;3.60;;;5.10;78.70;;;;;;5026178;28;20055;-78
2023/03/04 11:02:26;;;;;;;27.75;3.85;;;5.20;78.20;;;;;;5025202;28;20064;-78
2023/03/04 11:05:20;;;;;;;27.45;4.90;;;5.30;76.60;;;;;;5026596;28;20653;-78
2023/03/04 11:07:51;;;;;;;26.45;3.38;;;5.50;76.90;;;;;;5020669;28;20050;-78
2023/03/04 11:10:22;;;;;;;28.58;3.55;;;5.30;76.30;;;;;;5022786;28;20053;-78
2023/03/04 11:12:55;;;;;;;13.32;3.15;;;5.40;77.30;;;;;;5045556;28;20056;-78
2023/03/04 11:15:26;;;;;;;25.65;5.07;;;5.30;76.70;;;;;;5039199;28;20067;-78
2023/03/04 11:18:15;;;;;;;19.05;3.50;;;5.20;76.10;;;;;;5027403;28;20053;-78
2023/03/04 11:20:47;;;;;;;23.20;3.33;;;5.10;76.40;;;;;;5021806;28;20057;-78
2023/03/04 11:23:32;;;;;;;29.85;4.45;;;5.10;76.90;;;;;;5042227;22;20048;-81
2023/03/04 11:26:03;;;;;;;34.33;3.75;;;5.10;77.30;;;;;;5028092;28;20103;-83
2023/03/04 11:32:30;;;;;;;26.77;3.50;;;4.90;78.00;;;;;;5056046;28;20451;-76
2023/03/04 11:35:21;;;;;;;27.98;3.08;;;4.80;78.50;;;;;;5044232;28;20163;-82
2023/03/04 11:38:00;;;;;;;35.28;3.60;;;4.80;79.30;;;;;;5056800;28;20063;-83
2023/03/04 11:40:45;;;;;;;36.65;4.68;;;4.90;79.60;;;;;;5033815;28;20052;-82
2023/03/04 11:43:15;;;;;;;27.90;4.60;;;5.00;78.60;;;;;;5066428;28;20170;-83
2023/03/04 11:45:44;;;;;;;29.95;3.78;;;4.90;78.70;;;;;;5061635;28;20044;-83
2023/03/04 11:48:15;;;;;;;26.40;4.50;;;5.10;78.40;;;;;;5068149;28;20105;-82
2023/03/04 11:50:56;;;;;;;25.77;4.75;;;5.20;77.90;;;;;;5059280;28;20053;-83
2023/03/04 11:53:43;;;;;;;22.27;3.55;;;5.20;78.20;;;;;;5064631;28;20052;-83
2023/03/04 11:56:16;;;;;;;26.95;3.63;;;5.30;77.80;;;;;;5039492;28;20099;-83
2023/03/04 11:59:20;;;;;;;27.73;4.53;;;5.30;77.10;;;;;;5043023;28;20744;-83
2023/03/04 12:04:53;;;;;;;25.45;3.25;;;5.10;76.60;;;;;;4973448;28;20062;-76
2023/03/04 12:07:55;;;;;;;23.70;3.15;;;5.10;77.20;;;;;;4975142;28;20074;-76
2023/03/04 12:10:41;;;;;;;33.88;3.95;;;5.20;77.30;;;;;;4977740;28;20061;-77
2023/03/04 12:13:29;;;;;;;;;;;5.40;80.20;;;;;;4980187;28;20061;-76
2023/03/04 12:15:56;;;;;;;21.13;2.83;;;6.20;74.40;;;;;;4977580;28;19926;-76
2023/03/04 12:18:55;;;;;;;21.13;2.95;;;6.10;72.60;;;;;;4978814;28;20799;-76
2023/03/04 12:21:35;;;;;;;13.70;3.20;;;6.00;73.00;;;;;;4997098;28;20058;-76
2023/03/04 12:24:43;;;;;;;20.13;2.90;;;5.70;74.00;;;;;;5090804;22;20106;-77
2023/03/04 12:27:39;;;;;;;17.00;2.53;;;5.80;75.10;;;;;;5047039;28;20057;-76
2023/03/04 12:33:53;;;;;;;;;;;5.80;73.60;;;;;;5121935;22;20052;-82
2023/03/04 12:36:25;;;;;;;24.58;3.05;;;6.00;73.80;;;;;;5069128;28;20010;-84
2023/03/04 12:38:58;;;;;;;20.40;3.00;;;6.00;73.00;;;;;;5045698;28;20688;-84
2023/03/04 12:45:24;;;;;;;15.23;3.38;;;6.30;77.80;;;;;;5121958;23;20056;-83
2023/03/04 12:48:19;;;;;;;15.00;2.70;;;8.20;71.30;;;;;;5063788;28;20112;-83
2023/03/04 12:51:07;;;;;;;30.58;3.10;;;8.50;63.50;;;;;;5038258;28;20048;-82
2023/03/04 12:53:49;;;;;;;17.45;2.58;;;7.60;66.60;;;;;;5047252;28;20051;-83
2023/03/04 12:56:42;;;;;;;11.73;2.22;;;7.20;66.20;;;;;;5052470;28;20056;-82
2023/03/04 12:59:16;;;;;;;15.82;2.17;;;6.80;66.00;;;;;;5050635;28;20139;-81
2023/03/04 13:01:55;;;;;;;15.20;2.38;;;6.30;68.60;;;;;;5052937;28;20107;-81
2023/03/04 13:05:00;;;;;;;25.02;3.65;;;6.20;69.60;;;;;;5041550;28;20044;-81
2023/03/04 13:07:58;;;;;;;19.38;3.05;;;6.20;70.30;;;;;;5059458;28;20500;-83
2023/03/04 13:10:25;;;;;;;12.43;2.70;;;6.30;70.40;;;;;;5057695;28;20072;-81
2023/03/04 13:13:02;;;;;;;19.83;3.22;;;6.40;70.90;;;;;;5064327;28;20532;-82
2023/03/04 13:15:35;;;;;;;15.95;2.50;;;7.00;73.90;;;;;;5047020;28;20044;-82
2023/03/04 13:18:38;;;;;;;12.10;2.42;;;7.40;66.70;;;;;;5050463;28;20563;-82
2023/03/04 13:21:30;;;;;;;14.90;2.30;;;7.60;66.10;;;;;;5069635;28;20594;-82
2023/03/04 13:24:01;;;;;;;17.65;2.88;;;7.20;67.20;;;;;;5067435;28;20052;-81
2023/03/04 13:26:33;;;;;;;15.13;2.70;;;7.10;68.20;;;;;;5145138;22;20500;-77
2023/03/04 13:29:18;;;;;;;14.98;2.67;;;6.90;68.60;;;;;;5035760;28;20064;-77
2023/03/04 13:32:08;;;;;;;11.60;2.47;;;6.80;68.10;;;;;;5037008;28;20051;-77
2023/03/04 13:34:48;;;;;;;14.52;2.60;;;7.10;68.50;;;;;;5059528;28;20084;-78
2023/03/04 13:37:28;;;;;;;15.32;3.08;;;7.10;67.00;;;;;;5035111;28;20193;-77
2023/03/04 13:40:22;;;;;;;16.77;2.95;;;6.80;66.50;;;;;;5142725;22;20130;-78
2023/03/04 13:42:49;;;;;;;25.35;2.60;;;6.50;68.40;;;;;;5058117;28;20055;-77
2023/03/04 13:45:34;;;;;;;11.63;2.60;;;6.30;69.10;;;;;;5043120;28;20056;-78
2023/03/04 13:51:31;;;;;;;18.92;3.13;;;6.00;70.00;;;;;;5132100;22;20292;-82
2023/03/04 13:53:58;;;;;;;15.20;3.13;;;6.10;71.10;;;;;;5058452;28;20056;-82
2023/03/04 13:56:45;;;;;;;23.05;4.55;;;6.40;72.70;;;;;;5062794;28;20052;-82
2023/03/04 13:59:57;;;;;;;12.68;2.13;;;6.90;68.60;;;;;;5037657;28;20749;-82
2023/03/04 14:02:25;;;;;;;20.10;2.38;;;7.10;67.90;;;;;;5038034;28;20057;-82
2023/03/04 14:05:00;;;;;;;16.63;1.83;;;6.70;67.30;;;;;;5057887;28;20104;-82
2023/03/04 14:07:36;;;;;;;11.38;2.45;;;6.50;69.40;;;;;;5040280;28;20040;-82
2023/03/04 14:10:19;;;;;;;;;;;6.40;69.50;;;;;;5064875;28;20044;-82
2023/03/04 14:12:48;;;;;;;9.82;2.00;;;6.30;69.90;;;;;;5066022;28;19920;-82
2023/03/04 14:15:22;;;;;;;14.88;1.95;;;6.20;70.60;;;;;;5038147;28;20140;-82
2023/03/04 14:17:55;;;;;;;14.13;1.88;;;6.20;71.10;;;;;;5040020;28;20059;-82